Time;durP1;ratioP1;P1;durP2;ratioP2;P2;SDS_P1;SDS_P2;PMS_P1;PMS_P2;Temp;Humidity;BMP_temperature;BMP_pressure;BME280_temperature;BME280_humidity;BME280_pressure;Samples;Min_cycle;Max_cycle;Signal;HPM_P1;HPM_P2
2020/12/21 16:37:14;;;;;;;31.42;16.88;;;;;;;4.78;100.00;99055.63;5092606;27;20436;-76
2020/12/21 16:39:39;;;;;;;28.25;16.08;;;;;;;4.70;100.00;99060.50;5087373;28;20054;-76
2020/12/21 16:42:05;;;;;;;29.73;16.48;;;;;;;4.70;100.00;99055.09;5105146;28;20468;-75
2020/12/21 16:44:32;;;;;;;27.08;17.27;;;;;;;4.66;100.00;99056.63;5086647;28;20030;-74
2020/12/21 16:46:57;;;;;;;28.00;16.23;;;;;;;4.73;100.00;99060.09;5087560;28;20128;-74
2020/12/21 16:49:23;;;;;;;25.95;14.00;;;;;;;4.68;100.00;99062.63;5105990;28;20484;-75
2020/12/21 16:51:51;;;;;;;24.23;15.27;;;;;;;4.67;100.00;99061.81;5105562;28;20094;-74
2020/12/21 16:54:16;;;;;;;29.65;16.73;;;;;;;4.69;100.00;99061.59;5105248;28;20020;-77
2020/12/21 16:56:42;;;;;;;28.10;15.40;;;;;;;4.70;100.00;99069.47;5088312;28;20047;-75
2020/12/21 16:59:10;;;;;;;31.08;16.55;;;;;;;4.73;100.00;99066.31;5107913;28;20024;-76
2020/12/21 17:01:36;;;;;;;25.42;15.50;;;;;;;4.70;100.00;99069.47;5088658;28;20106;-79
2020/12/21 17:04:01;;;;;;;27.20;15.07;;;;;;;4.63;100.00;99065.22;5106692;28;20524;-74
2020/12/21 17:06:27;;;;;;;22.42;15.10;;;;;;;4.68;100.00;99058.06;5108002;28;20051;-75
2020/12/21 17:08:52;;;;;;;25.63;15.02;;;;;;;4.69;100.00;99056.19;5107414;28;20082;-77
2020/12/21 17:11:18;;;;;;;;;;;;;;;4.77;100.00;99061.25;5089747;28;20020;-75
2020/12/21 17:13:51;;;;;;;30.52;15.25;;;;;;;4.66;100.00;99045.81;5105591;28;19912;-74
2020/12/21 17:16:18;;;;;;;26.70;15.80;;;;;;;4.77;100.00;99053.97;5089311;28;20070;-76
2020/12/21 17:18:44;;;;;;;22.85;13.52;;;;;;;4.89;100.00;99050.47;5089304;28;20139;-74
2020/12/21 17:21:09;;;;;;;29.35;15.98;;;;;;;4.79;100.00;99040.19;5107173;28;20527;-77
2020/12/21 17:23:35;;;;;;;;;;;;;;;4.95;100.00;99053.06;5108041;28;20026;-75
2020/12/21 17:26:05;;;;;;;32.63;14.63;;;;;;;4.88;100.00;99044.22;5106094;28;19946;-76
2020/12/21 17:28:30;;;;;;;23.10;13.82;;;;;;;4.77;100.00;99042.28;5088110;28;20069;-75
2020/12/21 17:30:55;;;;;;;22.88;13.45;;;;;;;4.73;100.00;99028.38;5105813;28;20106;-75
2020/12/21 17:33:21;;;;;;;;;;;;;;;4.75;100.00;99052.53;5088332;28;20707;-76
2020/12/21 17:35:46;;;;;;;23.38;15.25;;;;;;;4.64;100.00;99039.75;5104426;28;20063;-74
2020/12/21 17:38:11;;;;;;;31.75;18.15;;;;;;;4.79;100.00;99037.47;5105811;28;20042;-75
2020/12/21 17:40:37;;;;;;;34.42;19.65;;;;;;;4.63;100.00;99048.97;5106179;28;20020;-74
2020/12/21 17:43:02;;;;;;;34.20;18.80;;;;;;;4.55;100.00;99041.16;5076866;28;20032;-75
2020/12/21 17:45:27;;;;;;;;;;;;;;;4.54;100.00;99039.50;5086989;28;20119;-75
2020/12/21 17:47:53;;;;;;;31.02;16.70;;;;;;;4.56;100.00;99040.94;5076585;28;19919;-76
2020/12/21 17:50:21;;;;;;;27.75;16.08;;;;;;;4.56;100.00;99046.34;5093420;28;20131;-75
2020/12/21 17:52:46;;;;;;;33.10;18.73;;;;;;;4.45;100.00;99035.47;5074016;28;20028;-76
2020/12/21 17:55:13;;;;;;;32.85;15.88;;;;;;;4.48;100.00;99040.44;5083682;28;20488;-75
2020/12/21 17:57:50;;;;;;;30.40;16.08;;;;;;;4.35;100.00;99021.66;5100472;28;20024;-74
2020/12/21 18:00:16;;;;;;;31.95;16.85;;;;;;;4.28;100.00;99014.44;5100992;28;20119;-75
2020/12/21 18:02:56;;;;;;;26.95;16.38;;;;;;;4.36;100.00;99043.06;5076965;28;20022;-74
2020/12/21 18:05:22;;;;;;;33.88;17.90;;;;;;;4.31;100.00;99038.34;5095071;28;20024;-76
2020/12/21 18:07:50;;;;;;;32.63;17.65;;;;;;;4.33;100.00;99041.66;5066162;28;20400;-76
2020/12/21 18:10:15;;;;;;;30.60;17.13;;;;;;;4.23;100.00;99022.41;5073219;28;20465;-74
2020/12/21 18:12:56;;;;;;;24.80;15.35;;;;;;;4.32;100.00;99053.53;5074119;28;20024;-75
2020/12/21 18:15:22;;;;;;;24.65;14.75;;;;;;;4.31;100.00;99049.19;5071069;28;20110;-75
2020/12/21 18:17:47;;;;;;;33.35;16.88;;;;;;;4.40;100.00;99044.28;5072404;28;20024;-74
2020/12/21 18:20:13;;;;;;;29.27;17.08;;;;;;;4.47;100.00;99042.31;5093690;28;20020;-76
2020/12/21 18:22:39;;;;;;;27.67;15.30;;;;;;;4.40;100.00;99022.59;5057149;28;20492;-75
2020/12/21 18:25:05;;;;;;;31.88;19.02;;;;;;;4.51;100.00;99035.34;5073015;28;20031;-75
2020/12/21 18:27:31;;;;;;;29.25;15.75;;;;;;;4.43;100.00;99016.72;5072874;28;20024;-75
2020/12/21 18:29:58;;;;;;;27.77;16.67;;;;;;;4.48;100.00;99016.06;5092193;28;20031;-75
2020/12/21 18:32:25;;;;;;;24.33;14.57;;;;;;;4.60;100.00;99025.03;5075409;28;20480;-76
2020/12/21 18:34:50;;;;;;;29.90;14.88;;;;;;;4.53;100.00;99027.00;5076060;28;20039;-74
2020/12/21 18:37:16;;;;;;;29.17;16.25;;;;;;;4.54;100.00;99015.94;5092890;28;20028;-77
2020/12/21 18:39:42;;;;;;;26.88;16.58;;;;;;;4.50;100.00;99014.75;5072597;28;20078;-75
2020/12/21 18:42:12;;;;;;;27.65;15.85;;;;;;;4.33;100.00;99008.31;5072969;28;20388;-75
2020/12/21 18:44:38;;;;;;;26.38;16.42;;;;;;;4.45;100.00;99011.91;5090729;28;20105;-75
2020/12/21 18:47:06;;;;;;;33.78;16.48;;;;;;;4.43;100.00;99018.59;5091211;28;20028;-75
2020/12/21 18:49:32;;;;;;;30.15;16.73;;;;;;;4.42;100.00;98998.00;5074065;28;20495;-75
2020/12/21 18:51:59;;;;;;;31.88;17.10;;;;;;;4.56;100.00;99021.97;5073266;28;20023;-76
2020/12/21 18:54:25;;;;;;;28.92;15.75;;;;;;;4.49;100.00;99012.28;5072514;28;20031;-77
2020/12/21 18:56:50;;;;;;;24.50;14.88;;;;;;;4.41;100.00;99002.59;5088589;28;20465;-76
2020/12/21 18:59:16;;;;;;;;;;;;;;;4.50;100.00;99017.47;5070697;28;20119;-75
2020/12/21 19:01:42;;;;;;;39.08;18.30;;;;;;;4.37;100.00;98987.03;5089632;28;19959;-75
2020/12/21 19:04:07;;;;;;;23.20;15.43;;;;;;;4.50;100.00;99003.94;5072584;28;20027;-80
2020/12/21 19:06:35;;;;;;;31.48;18.45;;;;;;;4.60;100.00;99012.34;5090894;28;20016;-75
2020/12/21 19:09:00;;;;;;;39.78;20.83;;;;;;;4.62;100.00;99022.91;5090307;28;20388;-77
2020/12/21 19:11:29;;;;;;;33.35;16.60;;;;;;;4.56;100.00;99008.41;5089925;28;20039;-77
2020/12/21 19:13:54;;;;;;;35.50;18.05;;;;;;;4.53;100.00;99006.19;5068008;28;20040;-77
2020/12/21 19:16:19;;;;;;;29.60;18.10;;;;;;;4.55;100.00;99005.94;5067176;28;20563;-77
2020/12/21 19:18:52;;;;;;;27.58;16.75;;;;;;;4.46;100.00;98996.47;5086375;28;20459;-75
2020/12/21 19:21:51;;;;;;;31.90;17.08;;;;;;;4.45;100.00;99005.69;5089251;28;20128;-81
2020/12/21 19:24:16;;;;;;;30.60;17.23;;;;;;;4.45;100.00;98997.56;5058320;28;20051;-75
2020/12/21 19:26:42;;;;;;;32.97;16.75;;;;;;;4.50;100.00;99003.94;5089489;28;20044;-83
2020/12/21 19:29:07;;;;;;;;;;;;;;;4.51;100.00;99005.56;5089668;28;20058;-78
2020/12/21 19:31:34;;;;;;;29.30;14.65;;;;;;;4.63;100.00;99014.56;5070385;28;19912;-76
2020/12/21 19:34:00;;;;;;;28.83;15.88;;;;;;;4.61;100.00;99013.13;5065300;28;20024;-75
2020/12/21 19:36:27;;;;;;;33.33;18.00;;;;;;;4.66;100.00;99018.69;5070600;28;20051;-79
2020/12/21 19:38:53;;;;;;;29.23;15.98;;;;;;;4.51;100.00;98999.34;5071160;28;20027;-83
2020/12/21 19:41:18;;;;;;;30.80;16.58;;;;;;;4.64;100.00;98997.25;5071196;28;20027;-86
2020/12/21 19:43:46;;;;;;;22.75;15.00;;;;;;;4.60;100.00;98997.97;5088236;28;20024;-78
2020/12/21 19:46:12;;;;;;;28.52;15.77;;;;;;;4.57;100.00;98990.28;5085374;28;21012;-75
2020/12/21 19:48:40;;;;;;;33.17;17.67;;;;;;;4.53;100.00;98992.63;5071574;28;20047;-76
2020/12/21 19:51:09;;;;;;;35.08;16.75;;;;;;;4.56;100.00;98991.34;5071151;28;20733;-82
2020/12/21 19:53:39;;;;;;;29.52;16.67;;;;;;;4.55;100.00;98982.38;5073318;28;20055;-87
2020/12/21 19:56:05;;;;;;;32.78;18.23;;;;;;;4.59;100.00;98986.28;5068513;28;20024;-82
2020/12/21 19:58:30;;;;;;;27.63;15.50;;;;;;;4.60;100.00;98987.13;5088677;28;20058;-86
2020/12/21 20:00:56;;;;;;;29.02;16.13;;;;;;;4.58;100.00;98972.97;5089129;28;20468;-84
2020/12/21 20:03:22;;;;;;;;;;;;;;;4.57;100.00;98984.88;5072078;28;20028;-89
2020/12/21 20:05:48;;;;;;;32.28;16.98;;;;;;;4.64;100.00;98981.00;5074477;28;19916;-90
2020/12/21 20:08:13;;;;;;;;;;;;;;;4.66;100.00;98964.50;5076039;28;20024;-87
2020/12/21 20:10:41;;;;;;;32.00;17.42;;;;;;;4.51;100.00;98956.00;5074422;28;19923;-85
2020/12/21 20:13:07;;;;;;;33.47;16.70;;;;;;;4.40;100.00;98957.59;5092416;28;20055;-88
2020/12/21 20:15:32;;;;;;;34.40;18.40;;;;;;;4.56;100.00;98953.41;5081300;28;20068;-84
2020/12/21 20:17:58;;;;;;;;;;;;;;;4.56;100.00;98953.41;5072649;28;20031;-79
2020/12/21 20:20:23;;;;;;;27.67;15.45;;;;;;;4.49;100.00;98942.69;5086143;28;19917;-90
2020/12/21 20:22:57;;;;;;;33.85;15.02;;;;;;;4.55;100.00;98941.75;5072280;28;20024;-83
2020/12/21 20:25:23;;;;;;;37.60;18.02;;;;;;;4.51;100.00;98929.72;5083940;28;20507;-80
2020/12/21 20:27:48;;;;;;;28.30;16.55;;;;;;;5.33;100.00;98939.56;5089194;28;20024;-80
2020/12/21 20:30:14;;;;;;;38.22;17.50;;;;;;;6.15;100.00;98942.09;5071893;28;20031;-85
2020/12/21 20:32:41;;;;;;;;;;;;;;;6.46;99.29;98947.88;5072301;28;20058;-81
2020/12/21 20:35:07;;;;;;;;;;;;;;;5.90;98.06;98953.28;5085879;28;19916;-83
2020/12/21 20:37:32;;;;;;;32.97;16.48;;;;;;;5.26;100.00;98952.41;5069513;28;19972;-84
2020/12/21 20:39:57;;;;;;;;;;;;;;;5.02;100.00;98964.31;5071207;28;20029;-84
2020/12/21 20:42:23;;;;;;;31.55;18.05;;;;;;;4.85;100.00;98968.78;5072259;28;19920;-90
2020/12/21 20:44:49;;;;;;;39.78;18.85;;;;;;;4.69;100.00;98974.88;5053437;28;20024;-82
2020/12/21 20:47:15;;;;;;;31.25;16.40;;;;;;;4.52;100.00;98965.75;5059062;28;20035;-83
2020/12/21 20:49:44;;;;;;;;;;;;;;;4.41;100.00;98967.41;5069470;28;20082;-81
2020/12/21 20:52:09;;;;;;;37.47;17.85;;;;;;;4.46;100.00;98969.41;5051699;28;19939;-87
2020/12/21 20:54:36;;;;;;;36.88;17.65;;;;;;;4.48;100.00;98957.25;5050996;28;20473;-80
2020/12/21 20:57:02;;;;;;;42.17;20.02;;;;;;;4.47;100.00;98952.09;5050957;28;20694;-85
2020/12/21 20:59:30;;;;;;;35.72;17.00;;;;;;;4.30;100.00;98951.91;5069830;28;20035;-78
2020/12/21 21:01:56;;;;;;;39.42;19.13;;;;;;;4.22;100.00;98938.72;5067530;28;20074;-79
2020/12/21 21:04:21;;;;;;;34.75;16.13;;;;;;;4.28;100.00;98944.03;5050685;28;20016;-82
2020/12/21 21:06:49;;;;;;;35.17;19.83;;;;;;;4.30;100.00;98950.03;5051044;28;20481;-76
2020/12/21 21:09:15;;;;;;;38.80;18.63;;;;;;;4.34;100.00;98945.00;5068351;28;20025;-80
2020/12/21 21:11:41;;;;;;;38.53;18.35;;;;;;;4.39;100.00;98942.41;5068201;28;20056;-78
2020/12/21 21:14:08;;;;;;;43.40;20.65;;;;;;;4.28;100.00;98935.91;5068029;28;20024;-80
2020/12/21 21:16:50;;;;;;;36.88;18.52;;;;;;;4.36;100.00;98950.16;5049434;28;20039;-77
2020/12/21 21:19:23;;;;;;;32.10;17.17;;;;;;;4.35;100.00;98962.06;5066035;28;20020;-77
2020/12/21 21:21:50;;;;;;;39.88;16.70;;;;;;;4.30;100.00;98944.63;5049969;28;20054;-78
2020/12/21 21:24:15;;;;;;;40.13;15.45;;;;;;;4.19;100.00;98923.75;5052636;28;20024;-77
2020/12/21 21:26:40;;;;;;;43.70;20.05;;;;;;;4.69;100.00;98945.09;5070748;28;20035;-76
2020/12/21 21:29:07;;;;;;;116.47;58.38;;;;;;;4.85;100.00;98937.06;5052333;28;20059;-82
2020/12/21 21:31:33;;;;;;;60.00;32.67;;;;;;;4.99;100.00;98944.97;5070272;28;20012;-76
2020/12/21 21:33:58;;;;;;;36.83;19.92;;;;;;;4.59;100.00;98931.28;5071159;28;20028;-85
2020/12/21 21:36:24;;;;;;;40.83;17.60;;;;;;;4.55;100.00;98932.78;5085423;28;20032;-87
2020/12/21 21:38:49;;;;;;;33.05;17.05;;;;;;;4.30;100.00;98909.41;5533973;22;20045;-89
2020/12/21 21:41:27;;;;;;;37.65;18.48;;;;;;;4.41;100.00;98906.97;5042798;28;20029;-87
2020/12/21 21:43:56;;;;;;;34.10;17.10;;;;;;;4.38;100.00;98919.09;5042492;28;20018;-82
2020/12/21 21:46:31;;;;;;;37.83;16.92;;;;;;;4.29;100.00;98921.31;5042643;28;20022;-87
2020/12/21 22:26:04;;;;;;;30.85;17.10;;;;;;;4.19;100.00;98910.22;5598502;22;20056;-83
2020/12/21 22:32:25;;;;;;;28.35;14.80;;;;;;;4.35;100.00;98929.56;5039732;28;20093;-91
2020/12/21 22:34:53;;;;;;;34.45;16.60;;;;;;;4.13;100.00;98905.75;5037985;28;20029;-88
2020/12/21 22:40:55;;;;;;;36.47;15.07;;;;;;;4.17;100.00;98896.06;5060456;28;20056;-90
2020/12/21 22:43:23;;;;;;;38.05;17.00;;;;;;;4.15;100.00;98886.53;5058752;28;20014;-86
2020/12/21 23:08:07;;;;;;;35.20;18.88;;;;;;;4.33;100.00;98884.59;5446801;22;20063;-85
2020/12/21 23:10:32;;;;;;;35.28;16.67;;;;;;;4.32;100.00;98888.34;5058283;28;20151;-85
2020/12/21 23:12:58;;;;;;;38.38;17.65;;;;;;;4.35;100.00;98903.31;5058741;28;20001;-82
2020/12/21 23:15:24;;;;;;;;;;;;;;;4.34;100.00;98896.25;5058319;28;20014;-84
2020/12/21 23:17:50;;;;;;;35.92;16.92;;;;;;;4.12;100.00;98868.06;5058265;28;19924;-82
2020/12/21 23:20:15;;;;;;;39.53;19.48;;;;;;;4.14;100.00;98872.19;5058121;28;20033;-81
2020/12/21 23:22:43;;;;;;;48.95;23.20;;;;;;;4.14;100.00;98864.06;5058712;28;20009;-79
2020/12/21 23:25:09;;;;;;;54.63;21.60;;;;;;;4.08;100.00;98859.56;5058199;28;20010;-82
2020/12/21 23:27:36;;;;;;;37.42;18.02;;;;;;;4.24;100.00;98858.91;5058602;28;20022;-79
2020/12/21 23:30:05;;;;;;;44.03;23.05;;;;;;;4.20;100.00;98863.13;5058596;28;20044;-83
2020/12/21 23:32:31;;;;;;;49.25;28.50;;;;;;;4.04;100.00;98839.44;5058042;28;20059;-80
2020/12/21 23:34:57;;;;;;;56.00;27.40;;;;;;;4.21;100.00;98864.78;5058487;28;20006;-80
2020/12/21 23:37:23;;;;;;;63.97;31.92;;;;;;;4.01;100.00;98852.63;5058760;28;20028;-83
2020/12/21 23:39:48;;;;;;;61.58;31.30;;;;;;;3.81;100.00;98830.44;5058627;28;20009;-81
2020/12/21 23:42:14;;;;;;;62.70;29.02;;;;;;;3.91;100.00;98850.47;5057554;28;20096;-83
2020/12/21 23:44:39;;;;;;;58.83;29.63;;;;;;;3.79;100.00;98838.75;5057701;28;20046;-81
2020/12/21 23:47:05;;;;;;;68.30;30.65;;;;;;;3.89;100.00;98836.31;5057233;28;20005;-81
2020/12/21 23:49:30;;;;;;;;;;;;;;;4.02;100.00;98860.50;5058478;28;20017;-83
2020/12/21 23:51:56;;;;;;;53.78;24.90;;;;;;;3.84;100.00;98825.38;5058264;28;19917;-84
2020/12/21 23:54:21;;;;;;;51.58;25.42;;;;;;;4.00;100.00;98856.38;5058116;28;20017;-81
2020/12/21 23:56:47;;;;;;;43.35;22.67;;;;;;;4.07;100.00;98843.56;5056634;28;20034;-86
2020/12/21 23:59:12;;;;;;;52.88;23.35;;;;;;;4.13;100.00;98839.94;5055919;28;20030;-86
